首页
METAR-TAF:

METAR-TAF

机场 :

Bentonville Municipal Airport/Louise M Thaden Field

本頓維, 阿肯色州, 美国

纬度: 36-21N, 经度: 094-13W, 海拔: 395米

当前天气观测

该预报发布于56分钟前的01:56 UTC
风速10节,风向
温度 2°C
湿度 100%
气压 1016 hPa
能見度: 16.1公里
阴天层高于1200英尺
小雨

METAR: KVBT 230156Z AUTO 17010KT 10SM -RA OVC012 02/02 A3000 RMK AO2 RAE05B25UPB05E25 SLP171 P0001 T00220017 FZRANO TSNO

时间: 20:52 (02:52 UTC)


TAF: 丢失

超过4000个机场的气象观测和天气预报(METAR&TAF报告)。

可查询的气象台以黄色和红色小点在地图上表示。

将鼠标移到小点上方,可查看气象台名称。

然后点击查看天气观测和预报。

如需切换地图:点击带黑十字的绿色按钮放大地图;点击带横线的绿色按钮缩小地图;或者点击绿色箭头查看邻近地区的地图。


METAR-TAF: